Time;durP1;ratioP1;P1;durP2;ratioP2;P2;SDS_P1;SDS_P2;PMS_P1;PMS_P2;Temp;Humidity;BMP_temperature;BMP_pressure;BME280_temperature;BME280_humidity;BME280_pressure;Samples;Min_cycle;Max_cycle;Signal;HPM_P1;HPM_P2
2020/12/13 00:00:51;;;;;;;542.53;271.07;;;;;;;;;;5073312;28;20435;-73
2020/12/13 00:03:18;;;;;;;541.47;268.17;;;;;;;;;;5073539;28;20447;-73
2020/12/13 00:05:44;;;;;;;541.28;265.77;;;;;;;;;;5073217;28;20379;-72
2020/12/13 00:08:11;;;;;;;538.42;257.73;;;;;;;;;;5073483;28;20374;-72
2020/12/13 00:10:37;;;;;;;537.80;254.50;;;;;;;;;;5073195;28;20407;-73
2020/12/13 00:13:03;;;;;;;539.53;263.17;;;;;;;;;;5073356;28;20499;-72
2020/12/13 00:15:29;;;;;;;540.43;265.73;;;;;;;;;;5072795;28;20466;-73
2020/12/13 00:17:56;;;;;;;541.95;268.60;;;;;;;;;;5073360;28;20378;-72
2020/12/13 00:20:22;;;;;;;539.93;265.70;;;;;;;;;;5072969;28;20438;-72
2020/12/13 00:22:48;;;;;;;540.22;264.13;;;;;;;;;;5073206;28;20419;-73
2020/12/13 00:25:15;;;;;;;541.25;268.42;;;;;;;;;;5072759;28;20859;-72
2020/12/13 00:27:41;;;;;;;540.75;266.67;;;;;;;;;;5072848;28;20915;-72
2020/12/13 00:30:07;;;;;;;540.22;265.33;;;;;;;;;;5072771;28;20444;-72
2020/12/13 00:32:34;;;;;;;538.17;261.52;;;;;;;;;;5072931;28;20410;-72
2020/12/13 00:35:00;;;;;;;540.08;267.23;;;;;;;;;;5072660;28;20359;-72
2020/12/13 00:37:27;;;;;;;539.92;268.00;;;;;;;;;;5072946;28;20720;-72
2020/12/13 00:39:54;;;;;;;540.80;270.73;;;;;;;;;;5073195;28;20825;-72
2020/12/13 00:42:20;;;;;;;542.58;275.50;;;;;;;;;;5072447;28;20891;-72
2020/12/13 00:44:46;;;;;;;540.08;266.00;;;;;;;;;;5072817;28;20912;-71
2020/12/13 00:47:12;;;;;;;538.92;263.92;;;;;;;;;;5070421;28;20366;-72
2020/12/13 00:49:38;;;;;;;540.20;267.38;;;;;;;;;;5072468;28;20779;-72
2020/12/13 00:52:05;;;;;;;540.88;270.55;;;;;;;;;;5072368;28;20475;-72
2020/12/13 00:54:31;;;;;;;541.35;271.23;;;;;;;;;;5072409;28;20406;-72
2020/12/13 00:56:58;;;;;;;540.53;270.45;;;;;;;;;;5072360;28;20766;-72
2020/12/13 00:59:24;;;;;;;540.28;266.73;;;;;;;;;;5072425;28;20404;-72
2020/12/13 01:01:50;;;;;;;539.88;269.58;;;;;;;;;;5072254;28;20836;-73
2020/12/13 01:04:16;;;;;;;541.47;272.07;;;;;;;;;;5072214;28;20374;-72
2020/12/13 01:06:43;;;;;;;540.85;273.48;;;;;;;;;;5072247;28;20439;-72
2020/12/13 01:09:09;;;;;;;542.75;275.75;;;;;;;;;;5072204;28;20408;-72
2020/12/13 01:11:35;;;;;;;541.55;272.40;;;;;;;;;;5072065;28;20362;-72
2020/12/13 01:14:02;;;;;;;542.22;272.85;;;;;;;;;;5072189;28;20762;-72
2020/12/13 01:16:28;;;;;;;540.63;269.77;;;;;;;;;;5072185;28;20446;-71
2020/12/13 01:18:55;;;;;;;542.00;271.15;;;;;;;;;;5072116;28;20748;-72
2020/12/13 01:21:25;;;;;;;542.28;273.05;;;;;;;;;;5072320;28;20362;-72
2020/12/13 01:23:51;;;;;;;542.47;273.50;;;;;;;;;;5072045;28;20362;-72
2020/12/13 01:26:18;;;;;;;539.88;271.10;;;;;;;;;;5071920;28;20844;-72
2020/12/13 01:28:45;;;;;;;540.70;270.35;;;;;;;;;;5071170;28;20373;-71
2020/12/13 01:31:12;;;;;;;542.08;272.35;;;;;;;;;;5072033;28;20377;-71
2020/12/13 01:33:39;;;;;;;541.97;271.23;;;;;;;;;;5072459;28;20452;-71
2020/12/13 01:36:05;;;;;;;545.25;280.70;;;;;;;;;;5072481;28;20365;-71
2020/12/13 01:38:31;;;;;;;547.95;282.60;;;;;;;;;;5072228;28;20366;-72
2020/12/13 01:40:59;;;;;;;546.15;276.60;;;;;;;;;;5071897;28;20365;-71
2020/12/13 01:43:25;;;;;;;542.65;273.20;;;;;;;;;;5071694;28;20408;-72
2020/12/13 01:45:52;;;;;;;540.47;270.15;;;;;;;;;;5071858;28;20433;-71
2020/12/13 01:48:18;;;;;;;540.30;269.02;;;;;;;;;;5072116;28;20728;-71
2020/12/13 01:53:15;;;;;;;544.35;275.25;;;;;;;;;;5071724;28;20398;-71
2020/12/13 01:55:45;;;;;;;543.55;274.35;;;;;;;;;;5071701;28;20472;-71
2020/12/13 01:58:14;;;;;;;542.22;269.63;;;;;;;;;;5072344;28;20404;-72
2020/12/13 02:00:43;;;;;;;540.47;264.58;;;;;;;;;;5071937;28;20370;-72
2020/12/13 02:03:11;;;;;;;539.88;262.63;;;;;;;;;;5071921;28;20366;-72
2020/12/13 02:05:38;;;;;;;539.00;257.67;;;;;;;;;;5071585;28;20359;-71
2020/12/13 02:08:06;;;;;;;538.53;253.65;;;;;;;;;;5071927;28;20365;-72
2020/12/13 02:10:34;;;;;;;538.60;256.55;;;;;;;;;;5071880;28;20449;-71
2020/12/13 02:13:00;;;;;;;539.42;256.10;;;;;;;;;;5071837;28;20883;-71
2020/12/13 02:15:26;;;;;;;539.90;257.88;;;;;;;;;;5071864;28;20433;-78
2020/12/13 02:17:55;;;;;;;538.40;256.70;;;;;;;;;;5071562;28;20374;-71
2020/12/13 02:20:21;;;;;;;541.20;260.77;;;;;;;;;;5071787;28;20698;-71
2020/12/13 02:22:48;;;;;;;537.90;252.07;;;;;;;;;;5071482;28;20366;-71
2020/12/13 02:25:24;;;;;;;538.80;257.03;;;;;;;;;;5071778;28;20377;-71
2020/12/13 02:27:50;;;;;;;538.90;256.65;;;;;;;;;;5071847;28;20858;-72
2020/12/13 02:30:16;;;;;;;540.65;262.42;;;;;;;;;;5071479;28;20378;-71
2020/12/13 02:32:43;;;;;;;540.20;258.00;;;;;;;;;;5071944;28;20402;-72
2020/12/13 02:35:11;;;;;;;539.58;255.38;;;;;;;;;;5071433;28;20870;-71
2020/12/13 02:37:37;;;;;;;538.00;254.90;;;;;;;;;;5071454;28;20855;-71
2020/12/13 02:40:04;;;;;;;537.30;249.93;;;;;;;;;;5074156;28;20370;-71
2020/12/13 02:42:34;;;;;;;537.35;248.52;;;;;;;;;;5074843;28;20787;-79
2020/12/13 02:45:01;;;;;;;535.97;244.50;;;;;;;;;;5075156;28;20693;-71
2020/12/13 02:47:27;;;;;;;536.05;247.23;;;;;;;;;;5075061;28;20421;-71
2020/12/13 02:49:53;;;;;;;535.15;244.27;;;;;;;;;;5074839;28;20428;-71
2020/12/13 02:52:19;;;;;;;534.40;244.20;;;;;;;;;;5074956;28;20747;-71
2020/12/13 02:54:46;;;;;;;535.08;244.32;;;;;;;;;;5074668;28;20350;-71
2020/12/13 02:57:12;;;;;;;533.88;243.10;;;;;;;;;;5074731;28;20378;-71
2020/12/13 02:59:38;;;;;;;536.73;249.93;;;;;;;;;;5074716;28;20358;-71
2020/12/13 03:02:04;;;;;;;537.65;250.75;;;;;;;;;;5074532;28;20382;-71
2020/12/13 03:04:31;;;;;;;538.07;254.20;;;;;;;;;;5074582;28;20359;-71
2020/12/13 03:06:57;;;;;;;538.17;253.05;;;;;;;;;;5074718;28;20382;-71
2020/12/13 03:09:23;;;;;;;536.47;250.10;;;;;;;;;;5074504;28;20362;-71
2020/12/13 03:11:49;;;;;;;538.85;258.05;;;;;;;;;;5074665;28;20851;-71
2020/12/13 03:14:15;;;;;;;538.95;258.15;;;;;;;;;;5056426;28;20804;-72
2020/12/13 03:16:42;;;;;;;537.95;255.32;;;;;;;;;;5074385;28;20370;-71
2020/12/13 03:19:08;;;;;;;539.45;259.10;;;;;;;;;;5074283;28;20377;-71
2020/12/13 03:21:34;;;;;;;538.75;257.92;;;;;;;;;;5074176;28;20369;-71
2020/12/13 03:24:00;;;;;;;538.15;256.48;;;;;;;;;;5074190;28;20393;-71
2020/12/13 03:26:27;;;;;;;537.05;257.30;;;;;;;;;;5074205;28;20366;-71
2020/12/13 03:28:53;;;;;;;538.53;260.55;;;;;;;;;;5074079;28;20431;-71
2020/12/13 03:31:19;;;;;;;538.97;259.40;;;;;;;;;;5074297;28;20354;-71
2020/12/13 03:33:47;;;;;;;537.83;256.75;;;;;;;;;;5074459;28;20867;-71
2020/12/13 03:36:13;;;;;;;538.07;258.63;;;;;;;;;;5074276;28;20761;-71
2020/12/13 03:38:40;;;;;;;538.53;260.73;;;;;;;;;;5073827;28;20374;-71
2020/12/13 03:41:06;;;;;;;539.15;256.20;;;;;;;;;;5073708;28;20867;-70
2020/12/13 03:43:32;;;;;;;539.78;259.88;;;;;;;;;;5073783;28;20420;-71
2020/12/13 03:45:59;;;;;;;540.25;261.13;;;;;;;;;;5073819;28;20439;-71
2020/12/13 03:48:25;;;;;;;539.65;262.70;;;;;;;;;;5073598;28;20879;-71
2020/12/13 03:50:51;;;;;;;537.40;258.60;;;;;;;;;;5073095;28;20378;-71
2020/12/13 03:53:18;;;;;;;536.03;248.00;;;;;;;;;;5073533;28;20500;-71
2020/12/13 03:55:44;;;;;;;537.13;252.00;;;;;;;;;;5073951;28;20401;-71
2020/12/13 03:58:10;;;;;;;537.60;255.57;;;;;;;;;;5074212;28;20416;-72
2020/12/13 04:00:37;;;;;;;537.65;257.00;;;;;;;;;;5073587;28;20357;-71
2020/12/13 04:03:04;;;;;;;538.03;258.00;;;;;;;;;;5073774;28;20374;-71
2020/12/13 04:05:31;;;;;;;535.85;253.10;;;;;;;;;;5073526;28;20418;-72
2020/12/13 04:07:57;;;;;;;537.28;254.63;;;;;;;;;;5073416;28;20374;-71
2020/12/13 04:10:25;;;;;;;537.35;257.73;;;;;;;;;;5073616;28;20733;-71
2020/12/13 04:12:51;;;;;;;538.00;258.33;;;;;;;;;;5073430;28;20397;-71
2020/12/13 04:15:18;;;;;;;539.17;260.17;;;;;;;;;;5073093;28;20373;-71
2020/12/13 04:17:47;;;;;;;538.20;256.95;;;;;;;;;;5073147;28;20367;-71
2020/12/13 04:20:13;;;;;;;535.90;249.55;;;;;;;;;;5073487;28;20370;-72
2020/12/13 04:22:39;;;;;;;535.33;251.00;;;;;;;;;;5073374;28;20366;-71
2020/12/13 04:25:06;;;;;;;536.97;254.53;;;;;;;;;;5073332;28;20568;-71
2020/12/13 04:27:32;;;;;;;537.28;251.25;;;;;;;;;;5073532;28;20422;-71
2020/12/13 04:29:59;;;;;;;536.40;248.87;;;;;;;;;;5072973;28;20372;-71
2020/12/13 04:32:25;;;;;;;535.53;245.57;;;;;;;;;;5072816;28;20912;-71
2020/12/13 04:34:51;;;;;;;534.88;242.25;;;;;;;;;;5072808;28;20385;-71
2020/12/13 04:37:18;;;;;;;535.30;241.93;;;;;;;;;;5073053;28;20381;-71
2020/12/13 04:39:44;;;;;;;534.75;239.80;;;;;;;;;;5072762;28;20441;-70
2020/12/13 04:42:10;;;;;;;532.03;236.20;;;;;;;;;;5072461;28;20398;-71
2020/12/13 04:44:37;;;;;;;535.33;240.88;;;;;;;;;;5072671;28;20754;-71
2020/12/13 04:47:05;;;;;;;536.27;238.70;;;;;;;;;;5072962;28;20366;-71
2020/12/13 04:49:35;;;;;;;533.37;233.77;;;;;;;;;;5073102;28;20362;-71
2020/12/13 04:52:02;;;;;;;532.88;232.65;;;;;;;;;;5072733;28;20444;-71
2020/12/13 04:54:29;;;;;;;528.63;227.10;;;;;;;;;;5072538;28;20385;-71
2020/12/13 04:56:57;;;;;;;526.85;221.35;;;;;;;;;;5072736;28;20362;-71
2020/12/13 04:59:25;;;;;;;526.23;221.40;;;;;;;;;;5072471;28;20730;-71
2020/12/13 05:01:51;;;;;;;528.47;224.60;;;;;;;;;;5072285;28;20862;-71
2020/12/13 05:04:18;;;;;;;530.95;226.90;;;;;;;;;;5072534;28;20378;-71
2020/12/13 05:06:44;;;;;;;528.03;219.48;;;;;;;;;;5072655;28;20360;-71
2020/12/13 05:09:12;;;;;;;527.22;219.05;;;;;;;;;;5072662;28;20370;-71
2020/12/13 05:11:42;;;;;;;527.43;219.30;;;;;;;;;;5072800;28;20504;-71
2020/12/13 05:14:08;;;;;;;527.72;219.90;;;;;;;;;;5072558;28;20374;-71
2020/12/13 05:16:35;;;;;;;526.50;218.07;;;;;;;;;;5072597;28;20362;-71
2020/12/13 05:19:01;;;;;;;527.55;221.10;;;;;;;;;;5072509;28;20374;-71
2020/12/13 05:21:27;;;;;;;526.38;219.20;;;;;;;;;;5072460;28;20389;-71
2020/12/13 05:23:54;;;;;;;526.80;220.38;;;;;;;;;;5072458;28;20362;-71
2020/12/13 05:26:21;;;;;;;527.73;219.37;;;;;;;;;;5072179;28;20373;-71
2020/12/13 05:28:49;;;;;;;527.03;218.55;;;;;;;;;;5072229;28;20370;-72
2020/12/13 05:31:16;;;;;;;526.33;214.95;;;;;;;;;;5072117;28;20367;-71
2020/12/13 05:33:49;;;;;;;525.38;213.32;;;;;;;;;;5072356;28;20408;-71
2020/12/13 05:36:17;;;;;;;525.67;217.10;;;;;;;;;;5072349;28;20360;-73
2020/12/13 05:38:43;;;;;;;526.90;218.93;;;;;;;;;;5072372;28;20746;-71
2020/12/13 05:41:11;;;;;;;525.17;215.57;;;;;;;;;;5071808;28;20378;-72
2020/12/13 05:46:30;;;;;;;526.50;218.93;;;;;;;;;;5071971;28;20374;-72
2020/12/13 05:51:45;;;;;;;526.88;218.15;;;;;;;;;;5072170;28;20405;-68
2020/12/13 05:54:22;;;;;;;529.13;225.30;;;;;;;;;;5071872;28;20377;-68
2020/12/13 05:56:51;;;;;;;531.70;232.77;;;;;;;;;;5072651;28;20391;-67
2020/12/13 05:59:17;;;;;;;529.90;225.73;;;;;;;;;;5071762;28;20358;-67
2020/12/13 06:01:45;;;;;;;525.78;219.57;;;;;;;;;;5072127;28;20436;-67
2020/12/13 06:04:14;;;;;;;528.13;225.98;;;;;;;;;;5071781;28;20366;-67
2020/12/13 06:06:44;;;;;;;529.40;226.55;;;;;;;;;;5072049;28;20840;-67
2020/12/13 06:09:14;;;;;;;531.28;231.13;;;;;;;;;;5071763;28;20850;-68
2020/12/13 06:11:49;;;;;;;530.45;230.95;;;;;;;;;;5071950;28;20712;-67
2020/12/13 06:14:16;;;;;;;533.13;238.35;;;;;;;;;;5073296;28;20377;-67
2020/12/13 06:16:43;;;;;;;532.38;239.25;;;;;;;;;;5075493;28;20840;-67
2020/12/13 06:19:10;;;;;;;530.60;230.88;;;;;;;;;;5075390;28;20419;-67
2020/12/13 06:21:38;;;;;;;529.53;233.27;;;;;;;;;;5075392;28;20527;-67
2020/12/13 06:24:06;;;;;;;530.35;232.00;;;;;;;;;;5075376;28;20415;-66
2020/12/13 06:26:32;;;;;;;526.90;224.38;;;;;;;;;;5075199;28;20925;-67
2020/12/13 06:28:58;;;;;;;526.67;224.55;;;;;;;;;;5075547;28;20829;-67
2020/12/13 06:31:24;;;;;;;530.20;232.13;;;;;;;;;;5075404;28;20843;-67
2020/12/13 06:33:51;;;;;;;528.67;231.70;;;;;;;;;;5075153;28;20394;-68
2020/12/13 06:36:21;;;;;;;529.55;235.27;;;;;;;;;;5075017;28;20362;-68
2020/12/13 06:38:50;;;;;;;531.58;234.07;;;;;;;;;;5075330;28;20362;-67
2020/12/13 06:41:19;;;;;;;529.00;229.53;;;;;;;;;;5074846;28;20720;-68
2020/12/13 06:43:54;;;;;;;528.58;232.77;;;;;;;;;;5075567;28;20394;-68
2020/12/13 06:46:21;;;;;;;530.42;231.65;;;;;;;;;;5074886;28;20390;-68
2020/12/13 06:48:48;;;;;;;529.25;230.65;;;;;;;;;;5074808;28;20406;-68
2020/12/13 06:51:18;;;;;;;528.92;233.70;;;;;;;;;;5075140;28;20411;-68
2020/12/13 06:53:46;;;;;;;528.58;233.00;;;;;;;;;;5074973;28;20897;-68
2020/12/13 06:56:12;;;;;;;528.50;232.60;;;;;;;;;;5074666;28;20545;-67
2020/12/13 06:58:55;;;;;;;529.75;233.57;;;;;;;;;;5074593;28;20366;-68
2020/12/13 07:01:21;;;;;;;528.15;228.45;;;;;;;;;;5074896;28;20794;-67
2020/12/13 07:03:48;;;;;;;528.15;225.15;;;;;;;;;;5074514;28;20411;-67
2020/12/13 07:06:20;;;;;;;526.58;224.13;;;;;;;;;;5074847;28;20376;-67
2020/12/13 07:08:50;;;;;;;526.10;221.77;;;;;;;;;;5074527;28;20728;-68
2020/12/13 07:11:18;;;;;;;527.03;228.10;;;;;;;;;;5074749;28;20367;-67
2020/12/13 07:13:45;;;;;;;528.90;227.57;;;;;;;;;;5074628;28;20401;-68
2020/12/13 07:16:26;;;;;;;531.00;230.18;;;;;;;;;;5074364;28;20354;-68
2020/12/13 07:19:00;;;;;;;530.67;229.02;;;;;;;;;;5074343;28;20832;-67
2020/12/13 07:21:26;;;;;;;528.35;229.95;;;;;;;;;;5074586;28;20354;-68
2020/12/13 07:23:52;;;;;;;526.03;221.60;;;;;;;;;;5074517;28;20462;-67
2020/12/13 07:26:19;;;;;;;529.67;230.43;;;;;;;;;;5074133;28;20358;-67
2020/12/13 07:28:46;;;;;;;528.22;227.70;;;;;;;;;;5074177;28;20880;-68
2020/12/13 07:31:13;;;;;;;532.00;233.93;;;;;;;;;;5074356;28;20366;-67
2020/12/13 07:33:40;;;;;;;532.17;233.05;;;;;;;;;;5074024;28;20394;-67
2020/12/13 07:36:06;;;;;;;529.60;227.97;;;;;;;;;;5074276;28;20374;-68
2020/12/13 07:38:34;;;;;;;529.53;230.18;;;;;;;;;;5074211;28;20366;-68
2020/12/13 07:41:00;;;;;;;528.47;228.93;;;;;;;;;;5073885;28;20457;-68
2020/12/13 07:43:26;;;;;;;526.30;221.37;;;;;;;;;;5073665;28;21010;-67
2020/12/13 07:45:52;;;;;;;528.85;225.98;;;;;;;;;;5073789;28;20389;-68
2020/12/13 07:48:19;;;;;;;530.30;232.15;;;;;;;;;;5073709;28;20366;-68
2020/12/13 07:50:48;;;;;;;527.40;223.35;;;;;;;;;;5073689;28;20365;-68
2020/12/13 07:53:24;;;;;;;528.80;228.77;;;;;;;;;;5073660;28;20394;-69
2020/12/13 07:55:50;;;;;;;525.97;226.60;;;;;;;;;;5073633;28;20740;-69
2020/12/13 07:58:20;;;;;;;527.13;222.43;;;;;;;;;;5073617;28;20701;-68
2020/12/13 08:00:46;;;;;;;524.10;220.55;;;;;;;;;;5073569;28;20361;-68
2020/12/13 08:03:13;;;;;;;527.92;228.77;;;;;;;;;;5073524;28;20394;-69
2020/12/13 08:05:41;;;;;;;526.80;223.45;;;;;;;;;;5073468;28;20808;-68
2020/12/13 08:08:08;;;;;;;527.40;225.55;;;;;;;;;;5073671;28;20366;-68
2020/12/13 08:10:35;;;;;;;529.00;230.27;;;;;;;;;;5073663;28;20425;-69
2020/12/13 08:13:03;;;;;;;529.40;228.60;;;;;;;;;;5073293;28;21007;-68
2020/12/13 08:15:29;;;;;;;530.08;231.90;;;;;;;;;;5073476;28;20366;-68
2020/12/13 08:18:22;;;;;;;530.85;231.32;;;;;;;;;;5073749;28;20373;-69
2020/12/13 08:20:49;;;;;;;529.53;233.35;;;;;;;;;;5069730;28;20370;-68
2020/12/13 08:23:15;;;;;;;528.77;227.20;;;;;;;;;;5073100;28;20779;-68
2020/12/13 08:25:42;;;;;;;529.55;228.82;;;;;;;;;;5073027;28;20366;-68
2020/12/13 08:28:08;;;;;;;529.97;229.65;;;;;;;;;;5073263;28;20432;-69
2020/12/13 08:30:35;;;;;;;528.17;227.88;;;;;;;;;;5072948;28;20377;-69
2020/12/13 08:33:01;;;;;;;530.50;232.88;;;;;;;;;;5073151;28;20401;-68
2020/12/13 08:35:28;;;;;;;529.08;233.95;;;;;;;;;;5073121;28;20370;-68
2020/12/13 08:37:55;;;;;;;527.58;229.32;;;;;;;;;;5072737;28;20374;-67
2020/12/13 08:40:41;;;;;;;527.65;231.30;;;;;;;;;;5072801;28;20361;-67
2020/12/13 08:43:08;;;;;;;528.40;230.43;;;;;;;;;;5072512;28;20401;-67
2020/12/13 08:45:35;;;;;;;529.55;230.88;;;;;;;;;;5073261;28;20374;-68
2020/12/13 08:48:01;;;;;;;529.20;235.38;;;;;;;;;;5072836;28;20370;-68
2020/12/13 08:50:39;;;;;;;528.25;234.55;;;;;;;;;;5072487;28;20377;-68
2020/12/13 08:53:19;;;;;;;527.97;232.80;;;;;;;;;;5073055;28;20390;-68
2020/12/13 08:55:45;;;;;;;530.03;240.80;;;;;;;;;;5072775;28;20396;-67
2020/12/13 08:58:12;;;;;;;531.28;242.98;;;;;;;;;;5072758;28;20366;-70
2020/12/13 09:00:38;;;;;;;529.70;239.27;;;;;;;;;;5072582;28;20364;-68
2020/12/13 09:03:04;;;;;;;528.70;235.98;;;;;;;;;;5072345;28;20366;-69
2020/12/13 09:05:32;;;;;;;528.38;232.82;;;;;;;;;;5072346;28;20455;-68
2020/12/13 09:07:59;;;;;;;529.45;234.63;;;;;;;;;;5072554;28;20859;-68
2020/12/13 09:10:26;;;;;;;527.85;233.68;;;;;;;;;;5072225;28;20455;-73
2020/12/13 09:12:52;;;;;;;528.63;237.35;;;;;;;;;;5072490;28;20752;-69
2020/12/13 09:15:19;;;;;;;533.35;247.10;;;;;;;;;;5072192;28;20366;-68
2020/12/13 09:18:12;;;;;;;533.85;248.13;;;;;;;;;;5072222;28;20400;-67
2020/12/13 09:20:38;;;;;;;534.17;252.18;;;;;;;;;;5068805;28;20860;-68
2020/12/13 09:23:04;;;;;;;533.10;250.60;;;;;;;;;;5072441;28;20739;-68
2020/12/13 09:25:54;;;;;;;533.08;250.38;;;;;;;;;;5072162;28;20401;-68
2020/12/13 09:28:21;;;;;;;535.53;256.83;;;;;;;;;;5072164;28;20424;-67
2020/12/13 09:30:47;;;;;;;535.75;254.25;;;;;;;;;;5072610;28;20374;-69
2020/12/13 09:33:15;;;;;;;535.70;255.73;;;;;;;;;;5072224;28;20444;-67
2020/12/13 09:35:41;;;;;;;533.03;254.65;;;;;;;;;;5072605;28;20411;-68
2020/12/13 09:38:09;;;;;;;533.90;253.43;;;;;;;;;;5072045;28;20370;-68
2020/12/13 09:40:35;;;;;;;535.45;255.88;;;;;;;;;;5072035;28;20366;-69
2020/12/13 09:43:03;;;;;;;532.92;247.88;;;;;;;;;;5071728;28;20398;-68
2020/12/13 09:45:29;;;;;;;533.73;250.07;;;;;;;;;;5072281;28;20366;-69
2020/12/13 09:47:58;;;;;;;531.10;244.80;;;;;;;;;;5071886;28;20374;-68
2020/12/13 09:50:25;;;;;;;532.85;247.38;;;;;;;;;;5075591;28;20840;-69
2020/12/13 09:52:51;;;;;;;534.28;249.82;;;;;;;;;;5075940;28;20398;-68
2020/12/13 09:55:18;;;;;;;532.67;245.80;;;;;;;;;;5075804;28;20451;-69
2020/12/13 09:57:44;;;;;;;535.00;252.65;;;;;;;;;;5076161;28;20417;-68
2020/12/13 10:00:10;;;;;;;534.78;251.75;;;;;;;;;;5075743;28;20386;-69
2020/12/13 10:02:37;;;;;;;534.53;252.47;;;;;;;;;;5075496;28;20496;-67
2020/12/13 10:05:05;;;;;;;533.90;251.55;;;;;;;;;;5075700;28;20397;-68
2020/12/13 10:10:13;;;;;;;;;;;;;;;;;;5076989;28;20362;-68
2020/12/13 10:12:39;;;;;;;;;;;;;;;;;;5077913;28;19912;-67
2020/12/13 10:15:05;;;;;;;;;;;;;;;;;;5077403;28;19909;-69
2020/12/13 10:17:31;;;;;;;;;;;;;;;;;;5077274;28;19909;-70
2020/12/13 10:19:57;;;;;;;;;;;;;;;;;;5077281;28;19904;-69
2020/12/13 10:22:23;;;;;;;;;;;;;;;;;;5077245;28;19905;-71
2020/12/13 10:24:49;;;;;;;;;;;;;;;;;;5077496;28;19966;-66
2020/12/13 10:27:15;;;;;;;;;;;;;;;;;;5077381;28;19938;-67
2020/12/13 10:29:41;;;;;;;;;;;;;;;;;;5077717;28;19912;-66
2020/12/13 10:32:07;;;;;;;;;;;;;;;;;;5076981;28;19935;-67
2020/12/13 10:34:33;;;;;;;;;;;;;;;;;;5077600;28;19927;-66
2020/12/13 10:36:59;;;;;;;;;;;;;;;;;;5077295;28;20300;-66
2020/12/13 10:39:25;;;;;;;;;;;;;;;;;;5076844;28;20417;-67
2020/12/13 10:41:52;;;;;;;;;;;;;;;;;;5076575;28;20286;-73
2020/12/13 10:44:19;;;;;;;;;;;;;;;;;;5075919;28;20278;-67
2020/12/13 10:46:45;;;;;;;;;;;;;;;;;;5075911;28;19904;-67
2020/12/13 10:49:11;;;;;;;;;;;;;;;;;;5075856;28;19950;-67
2020/12/13 10:51:37;;;;;;;;;;;;;;;;;;5075542;28;19912;-66
2020/12/13 10:54:03;;;;;;;;;;;;;;;;;;5073167;28;19923;-66
2020/12/13 10:56:29;;;;;;;;;;;;;;;;;;5093924;28;19911;-68
2020/12/13 10:58:55;;;;;;;;;;;;;;;;;;5095655;28;19911;-68
2020/12/13 11:01:21;;;;;;;;;;;;;;;;;;5094967;28;19908;-67
2020/12/13 11:03:47;;;;;;;;;;;;;;;;;;5095636;28;19950;-67
2020/12/13 11:06:13;;;;;;;;;;;;;;;;;;5095593;28;19904;-67
2020/12/13 11:08:39;;;;;;;;;;;;;;;;;;5095409;28;19965;-71
2020/12/13 11:11:06;;;;;;;;;;;;;;;;;;5095725;28;19927;-72
2020/12/13 11:13:32;;;;;;;;;;;;;;;;;;5095161;28;19923;-66
2020/12/13 11:15:58;;;;;;;;;;;;;;;;;;5095584;28;19911;-68
2020/12/13 11:18:24;;;;;;;;;;;;;;;;;;5095241;28;19904;-68
2020/12/13 11:20:50;;;;;;;;;;;;;;;;;;5095012;28;19935;-72
2020/12/13 11:23:16;;;;;;;;;;;;;;;;;;5095187;28;20278;-67
2020/12/13 11:25:42;;;;;;;;;;;;;;;;;;5095223;28;19910;-67
2020/12/13 11:28:08;;;;;;;;;;;;;;;;;;5095157;28;19904;-66
2020/12/13 11:30:34;;;;;;;;;;;;;;;;;;5095025;28;19930;-70
2020/12/13 11:33:00;;;;;;;;;;;;;;;;;;5095217;28;20380;-66
2020/12/13 11:35:26;;;;;;;;;;;;;;;;;;5094703;28;19937;-71
2020/12/13 11:37:52;;;;;;;;;;;;;;;;;;5094940;28;19998;-70
2020/12/13 11:40:18;;;;;;;;;;;;;;;;;;5095079;28;19904;-68
2020/12/13 11:42:44;;;;;;;;;;;;;;;;;;5038070;28;1599184;-71
2020/12/13 11:45:11;;;;;;;;;;;;;;;;;;5095848;28;20316;-68
2020/12/13 11:47:37;;;;;;;;;;;;;;;;;;5095854;28;19950;-71
2020/12/13 11:50:04;;;;;;;;;;;;;;;;;;5095665;28;19953;-67
2020/12/13 11:52:30;;;;;;;;;;;;;;;;;;5095420;28;20819;-67
2020/12/13 11:54:56;;;;;;;;;;;;;;;;;;5095773;28;19912;-67
2020/12/13 11:57:22;;;;;;;;;;;;;;;;;;5095540;28;20262;-70
2020/12/13 11:59:48;;;;;;;;;;;;;;;;;;5095537;28;20281;-66
2020/12/13 12:02:14;;;;;;;;;;;;;;;;;;5095408;28;19912;-66
2020/12/13 12:04:40;;;;;;;;;;;;;;;;;;5095077;28;19908;-72
2020/12/13 12:07:06;;;;;;;;;;;;;;;;;;5095396;28;19912;-66
2020/12/13 12:09:32;;;;;;;;;;;;;;;;;;5095655;28;19941;-66
2020/12/13 12:11:58;;;;;;;;;;;;;;;;;;5094059;28;19913;-66
2020/12/13 12:14:24;;;;;;;;;;;;;;;;;;5077407;28;20270;-65
2020/12/13 12:16:51;;;;;;;;;;;;;;;;;;5095423;28;20362;-71
2020/12/13 12:19:17;;;;;;;;;;;;;;;;;;5094807;28;19912;-65
2020/12/13 12:21:43;;;;;;;;;;;;;;;;;;5095105;28;20273;-69
2020/12/13 12:24:09;;;;;;;;;;;;;;;;;;5095260;28;19908;-71
2020/12/13 12:26:35;;;;;;;;;;;;;;;;;;5094874;28;19908;-72
2020/12/13 12:29:01;;;;;;;;;;;;;;;;;;5095150;28;19908;-66
2020/12/13 12:31:27;;;;;;;;;;;;;;;;;;5094990;28;19915;-66
2020/12/13 12:33:53;;;;;;;;;;;;;;;;;;5094956;28;19923;-66
2020/12/13 12:36:19;;;;;;;;;;;;;;;;;;5094851;28;19998;-66
2020/12/13 12:38:45;;;;;;;;;;;;;;;;;;5094400;28;20308;-66
2020/12/13 12:41:12;;;;;;;;;;;;;;;;;;5094785;28;19909;-66
2020/12/13 12:43:38;;;;;;;;;;;;;;;;;;5095434;28;19966;-65
2020/12/13 12:46:04;;;;;;;;;;;;;;;;;;5094820;28;19908;-72
2020/12/13 12:48:30;;;;;;;;;;;;;;;;;;5092665;28;19908;-67
2020/12/13 12:50:56;;;;;;;;;;;;;;;;;;5094796;28;19944;-73
2020/12/13 12:53:22;;;;;;;;;;;;;;;;;;5094649;28;20285;-66
2020/12/13 12:55:48;;;;;;;;;;;;;;;;;;5094903;28;19908;-66
2020/12/13 12:58:14;;;;;;;;;;;;;;;;;;5094632;28;19908;-70
2020/12/13 13:00:46;;;;;;;;;;;;;;;;;;5094646;28;19914;-66
2020/12/13 13:03:12;;;;;;;;;;;;;;;;;;5094540;28;19912;-66
2020/12/13 13:05:51;;;;;;;;;;;;;;;;;;5094564;28;19908;-66
2020/12/13 13:08:24;;;;;;;;;;;;;;;;;;5095035;28;20365;-67
2020/12/13 13:10:53;;;;;;;;;;;;;;;;;;5094401;28;20332;-73
2020/12/13 13:13:19;;;;;;;;;;;;;;;;;;5094590;28;19931;-66
2020/12/13 13:15:58;;;;;;;;;;;;;;;;;;5094642;28;20373;-65
2020/12/13 13:18:30;;;;;;;;;;;;;;;;;;5094305;28;20389;-72
2020/12/13 13:20:59;;;;;;;;;;;;;;;;;;5094225;28;19919;-69
2020/12/13 13:23:26;;;;;;;;;;;;;;;;;;5094684;28;19970;-73
2020/12/13 13:25:52;;;;;;;;;;;;;;;;;;5094206;28;20384;-66
2020/12/13 13:28:18;;;;;;;;;;;;;;;;;;5094182;28;19908;-65
2020/12/13 13:30:44;;;;;;;;;;;;;;;;;;5094096;28;19908;-66
2020/12/13 13:33:10;;;;;;;;;;;;;;;;;;5094634;28;19920;-66
2020/12/13 13:35:36;;;;;;;;;;;;;;;;;;5094126;28;19935;-66
2020/12/13 13:38:02;;;;;;;;;;;;;;;;;;5094151;28;19914;-66
2020/12/13 13:40:29;;;;;;;;;;;;;;;;;;5094099;28;20357;-66
2020/12/13 13:43:04;;;;;;;;;;;;;;;;;;5093868;28;19920;-66
2020/12/13 13:50:50;;;;;;;;;;;;;;;;;;5094020;28;20008;-65
2020/12/13 13:53:16;;;;;;;;;;;;;;;;;;5093892;28;20324;-68
2020/12/13 13:56:09;;;;;;;;;;;;;;;;;;5094116;28;20356;-65
2020/12/13 13:58:30;;;;;;;;;;;;;;;;;;5093163;28;19915;-65
2020/12/13 14:00:56;;;;;;;;;;;;;;;;;;5094403;28;20015;-72
2020/12/13 14:03:22;;;;;;;;;;;;;;;;;;5094152;28;20259;-71
2020/12/13 14:05:56;;;;;;;;;;;;;;;;;;5093859;28;19947;-72
2020/12/13 14:08:26;;;;;;;;;;;;;;;;;;5094074;28;19931;-65
2020/12/13 14:10:52;;;;;;;;;;;;;;;;;;5093754;28;19908;-64
2020/12/13 14:13:18;;;;;;;;;;;;;;;;;;5093679;28;19916;-70
2020/12/13 14:15:45;;;;;;;;;;;;;;;;;;5093731;28;19908;-71
2020/12/13 14:18:11;;;;;;;;;;;;;;;;;;5093734;28;19977;-66
2020/12/13 14:20:37;;;;;;;;;;;;;;;;;;5093584;28;19912;-65
2020/12/13 14:23:03;;;;;;;;;;;;;;;;;;5094279;28;19908;-66
2020/12/13 14:25:29;;;;;;;;;;;;;;;;;;5093628;28;19909;-66
2020/12/13 14:27:55;;;;;;;;;;;;;;;;;;5094202;28;19915;-72
2020/12/13 14:30:21;;;;;;;;;;;;;;;;;;5094209;28;19915;-66
2020/12/13 14:32:47;;;;;;;;;;;;;;;;;;5093492;28;19927;-66
2020/12/13 14:35:14;;;;;;;;;;;;;;;;;;5095192;28;19953;-70
2020/12/13 14:37:40;;;;;;;;;;;;;;;;;;5097344;28;19908;-66
2020/12/13 14:40:06;;;;;;;;;;;;;;;;;;5097826;28;19908;-72
2020/12/13 14:42:32;;;;;;;;;;;;;;;;;;5096982;28;19920;-65
2020/12/13 14:44:58;;;;;;;;;;;;;;;;;;5097197;28;19908;-66
2020/12/13 14:47:24;;;;;;;;;;;;;;;;;;5097160;28;19908;-72
2020/12/13 14:49:50;;;;;;;;;;;;;;;;;;5097652;28;19916;-72
2020/12/13 14:52:16;;;;;;;;;;;;;;;;;;5096890;28;19953;-71
2020/12/13 14:54:42;;;;;;;;;;;;;;;;;;5097545;28;20378;-71
2020/12/13 14:57:08;;;;;;;;;;;;;;;;;;5096931;28;19908;-72